Gypsy — WDG3518 — position and weather

sailwx.info

Track history (hours):
 
Tides and Currents Weather Stations Pressure Air Temp Water Temp Dewpoint Dewpoint Depression Visibility Wind Speed Wind Dir Waves Ship Positions

Gypsy

Owner: Brooks Family Trust, Tampa, FL. More information available from US FCC via Universal Licensing System and Coast Guard Vessel Documentation Center.

Last reported at 2018-May-13 20:36 UTC. Time now 2018-Aug-21 04:18 UTC.
Position N 27°51' W 082°27'.
Warning: this ship's position is months out of date.

Length 10 m.

Type: Sailing vessel. MMSI: 367526870.

Date/timePositionNaut miles runAvg speedWind from/ knotsBaromVisibWave heightAir tempDewpointWater temp
2018-May-13 20:36N 27°51' W 082°27'0 0.8
2018-May-13 20:30N 27°51' W 082°27'2 4.1
2018-May-13 20:00N 27°49' W 082°27'1 1.6
2018-May-13 19:30N 27°50' W 082°27'1 2.8
2018-May-13 19:00N 27°51' W 082°27'3 0.1
2018-May-12 19:38N 27°55' W 082°27'0 0.1
2018-May-12 19:30N 27°55' W 082°27'2 3.6
2018-May-12 19:00N 27°53' W 082°27'2 4.6
2018-May-12 18:30N 27°50' W 082°27'1 1.5
2018-May-12 17:57N 27°50' W 082°27'1 3.2
2018-May-12 17:30N 27°51' W 082°27'1 1.5
2018-May-12 17:00N 27°52' W 082°27'1 2.1
2018-May-12 16:30N 27°53' W 082°27'1 1.5
2018-May-12 16:00N 27°54' W 082°27'1 1.9
2018-May-12 15:29N 27°55' W 082°27'  
2018-May-03 23:48N 27°53' W 082°28'1 2.7
2018-May-03 23:30N 27°53' W 082°27'1 1.9
2018-May-03 23:01N 27°54' W 082°27'0 0.5
2018-May-03 22:30N 27°54' W 082°27'1 1.3
2018-May-03 21:55N 27°55' W 082°27'  
Track history (hours):
 
Tides and Currents Weather Stations Pressure Air Temp Water Temp Dewpoint Dewpoint Depression Visibility Wind Speed Wind Dir Waves Ship Positions

Gypsy

Owner: Brooks Family Trust, Tampa, FL. More information available from US FCC via Universal Licensing System and Coast Guard Vessel Documentation Center.

Last reported at 2018-May-13 20:36 UTC. Time now 2018-Aug-21 04:18 UTC.
Position N 27°51' W 082°27'.
Warning: this ship's position is months out of date.

Length 10 m.

Type: Sailing vessel. MMSI: 367526870.

Date/timePositionNaut miles runAvg speedWind from/ knotsBaromVisibWave heightAir tempDewpointWater temp
2018-May-13 20:36N 27°51' W 082°27'0 0.8
2018-May-13 20:30N 27°51' W 082°27'2 4.1
2018-May-13 20:00N 27°49' W 082°27'1 1.6
2018-May-13 19:30N 27°50' W 082°27'1 2.8
2018-May-13 19:00N 27°51' W 082°27'3 0.1
2018-May-12 19:38N 27°55' W 082°27'0 0.1
2018-May-12 19:30N 27°55' W 082°27'2 3.6
2018-May-12 19:00N 27°53' W 082°27'2 4.6
2018-May-12 18:30N 27°50' W 082°27'1 1.5
2018-May-12 17:57N 27°50' W 082°27'1 3.2
2018-May-12 17:30N 27°51' W 082°27'1 1.5
2018-May-12 17:00N 27°52' W 082°27'1 2.1
2018-May-12 16:30N 27°53' W 082°27'1 1.5
2018-May-12 16:00N 27°54' W 082°27'1 1.9
2018-May-12 15:29N 27°55' W 082°27'  
2018-May-03 23:48N 27°53' W 082°28'1 2.7
2018-May-03 23:30N 27°53' W 082°27'1 1.9
2018-May-03 23:01N 27°54' W 082°27'0 0.5
2018-May-03 22:30N 27°54' W 082°27'1 1.3
2018-May-03 21:55N 27°55' W 082°27'  

Dump ship's entire track history